createdAt,value
2022-12-25T00:01:33.942Z,20.73
2022-12-25T00:04:01.201Z,19.10
2022-12-25T00:06:28.728Z,21.08
2022-12-25T00:08:55.849Z,25.63
2022-12-25T00:11:23.542Z,26.38
2022-12-25T00:13:50.758Z,27.83
2022-12-25T00:16:24.461Z,25.55
2022-12-25T00:18:52.403Z,27.15
2022-12-25T00:21:21.175Z,30.73
2022-12-25T00:23:48.639Z,25.25
2022-12-25T00:26:18.130Z,23.45
2022-12-25T00:28:45.417Z,22.13
2022-12-25T00:31:15.791Z,23.58
2022-12-25T00:33:44.608Z,23.42
2022-12-25T00:36:13.310Z,29.02
2022-12-25T00:38:41.207Z,22.23
2022-12-25T00:41:14.574Z,21.77
2022-12-25T00:43:42.331Z,20.80
2022-12-25T00:46:11.961Z,20.73
2022-12-25T00:48:39.879Z,20.42
2022-12-25T00:51:11.213Z,21.13
2022-12-25T00:53:38.793Z,19.27
2022-12-25T00:56:07.997Z,20.55
2022-12-25T00:58:36.249Z,21.67
2022-12-25T01:01:04.292Z,21.13
2022-12-25T01:03:31.573Z,26.77
2022-12-25T01:06:01.713Z,23.67
2022-12-25T01:08:33.895Z,23.42
2022-12-25T01:11:04.697Z,23.13
2022-12-25T01:13:34.662Z,26.75
2022-12-25T01:16:09.954Z,29.40
2022-12-25T01:18:38.071Z,25.27
2022-12-25T01:21:07.267Z,24.13
2022-12-25T01:23:34.775Z,22.52
2022-12-25T01:26:10.925Z,28.15
2022-12-25T01:28:39.277Z,23.48
2022-12-25T01:31:10.869Z,21.42
2022-12-25T01:33:42.449Z,20.70
2022-12-25T01:36:22.214Z,21.65
2022-12-25T01:38:50.770Z,20.90
2022-12-25T01:41:21.105Z,22.52
2022-12-25T01:44:03.215Z,26.15
2022-12-25T01:46:31.547Z,28.77
2022-12-25T01:49:03.596Z,26.02
2022-12-25T01:51:42.573Z,23.38
2022-12-25T01:54:16.947Z,21.52
2022-12-25T01:56:47.688Z,19.50
2022-12-25T01:59:17.722Z,20.77
2022-12-25T02:01:46.072Z,20.27
2022-12-25T02:04:39.893Z,19.98
2022-12-25T02:07:10.556Z,21.35
2022-12-25T02:09:37.999Z,21.85
2022-12-25T02:12:08.877Z,21.95
2022-12-25T02:14:37.672Z,22.70
2022-12-25T02:17:13.963Z,21.35
2022-12-25T02:20:11.843Z,21.65
2022-12-25T02:22:56.684Z,22.40
2022-12-25T02:25:33.055Z,22.60
2022-12-25T02:28:28.498Z,22.92
2022-12-25T02:31:23.651Z,23.02
2022-12-25T02:34:14.038Z,24.95
2022-12-25T02:39:50.499Z,24.55
2022-12-25T02:42:47.650Z,25.38
2022-12-25T02:45:40.127Z,26.05
2022-12-25T02:48:29.009Z,23.80
2022-12-25T02:51:17.608Z,25.48
2022-12-25T02:54:06.499Z,25.30
2022-12-25T02:56:56.409Z,26.23
2022-12-25T02:59:43.927Z,26.80
2022-12-25T03:02:31.756Z,26.52
2022-12-25T03:05:23.764Z,25.80
2022-12-25T03:07:52.055Z,28.38
2022-12-25T03:10:40.083Z,28.25
2022-12-25T03:13:22.113Z,26.70
2022-12-25T03:16:08.738Z,26.42
2022-12-25T03:18:36.317Z,27.65
2022-12-25T03:21:22.128Z,28.90
2022-12-25T03:24:03.838Z,27.50
2022-12-25T03:26:49.573Z,28.48
2022-12-25T03:29:36.901Z,27.70
2022-12-25T03:32:27.587Z,30.33
2022-12-25T03:35:44.721Z,28.90
2022-12-25T03:38:33.059Z,29.10
2022-12-25T03:41:24.778Z,27.83
2022-12-25T03:44:13.648Z,28.10
2022-12-25T03:47:11.764Z,29.40
2022-12-25T03:50:25.457Z,28.83
2022-12-25T03:53:14.985Z,27.67
2022-12-25T03:56:01.689Z,27.92
2022-12-25T03:58:47.647Z,28.83
2022-12-25T04:01:33.503Z,27.08
2022-12-25T04:04:19.812Z,29.65
2022-12-25T04:07:05.585Z,31.40
2022-12-25T04:09:51.409Z,29.52
2022-12-25T04:12:54.001Z,30.95
2022-12-25T04:15:39.878Z,30.88
2022-12-25T04:18:25.529Z,31.10
2022-12-25T04:21:11.378Z,31.27
2022-12-25T04:23:57.247Z,28.40
2022-12-25T04:26:43.145Z,32.60
2022-12-25T04:29:29.068Z,31.98
2022-12-25T04:32:14.986Z,32.45
2022-12-25T04:35:00.855Z,32.28
2022-12-25T04:37:28.265Z,32.92
2022-12-25T04:39:55.275Z,31.10
2022-12-25T04:42:22.725Z,30.73
2022-12-25T04:44:50.172Z,30.92
2022-12-25T04:47:17.664Z,29.77
2022-12-25T04:49:44.728Z,29.27
2022-12-25T04:52:12.057Z,32.90
2022-12-25T04:54:39.257Z,30.45
2022-12-25T04:57:06.862Z,34.70
2022-12-25T04:59:33.871Z,30.85
2022-12-25T05:02:01.359Z,30.20
2022-12-25T05:04:28.462Z,31.38
2022-12-25T05:06:55.845Z,31.90
2022-12-25T05:09:22.877Z,35.47
2022-12-25T05:11:50.480Z,37.42
2022-12-25T05:14:17.681Z,49.65
2022-12-25T05:16:45.102Z,51.38
2022-12-25T05:19:12.144Z,48.15
2022-12-25T05:21:39.462Z,42.10
2022-12-25T05:24:06.842Z,42.78
2022-12-25T05:26:34.305Z,38.95
2022-12-25T05:29:01.423Z,39.00
2022-12-25T05:31:28.762Z,35.40
2022-12-25T05:33:55.855Z,32.90
2022-12-25T05:36:23.387Z,32.38
2022-12-25T05:38:50.529Z,33.13
2022-12-25T05:41:17.932Z,30.23
2022-12-25T05:43:44.961Z,32.33
2022-12-25T05:46:13.495Z,32.45
2022-12-25T05:48:40.605Z,34.88
2022-12-25T05:51:10.799Z,30.95
2022-12-25T05:53:38.749Z,34.72
2022-12-25T05:56:07.542Z,31.70
2022-12-25T05:58:38.170Z,35.97
2022-12-25T06:01:11.994Z,35.65
2022-12-25T06:03:39.234Z,31.30
2022-12-25T06:06:07.369Z,32.95
2022-12-25T06:08:34.912Z,33.28
2022-12-25T06:11:04.459Z,35.10
2022-12-25T06:13:33.177Z,35.03
2022-12-25T06:16:07.639Z,37.53
2022-12-25T06:18:36.525Z,35.85
2022-12-25T06:21:11.947Z,35.88
2022-12-25T06:23:39.508Z,42.28
2022-12-25T06:26:09.436Z,38.53
2022-12-25T06:28:37.005Z,60.65
2022-12-25T06:31:15.881Z,35.47
2022-12-25T06:33:43.520Z,60.70
2022-12-25T06:36:17.380Z,53.88
2022-12-25T06:38:44.896Z,65.88
2022-12-25T06:41:18.069Z,78.82
2022-12-25T06:43:52.614Z,54.13
2022-12-25T06:46:21.027Z,88.75
2022-12-25T06:48:49.529Z,93.90
2022-12-25T06:51:19.617Z,59.27
2022-12-25T06:53:51.322Z,56.67
2022-12-25T06:56:21.868Z,49.55
2022-12-25T06:58:53.142Z,34.80
2022-12-25T07:01:24.263Z,35.30
2022-12-25T07:03:54.693Z,36.45
2022-12-25T07:06:22.393Z,36.95
2022-12-25T07:08:49.541Z,43.85
2022-12-25T07:11:17.094Z,45.70
2022-12-25T07:13:44.242Z,53.88
2022-12-25T07:16:12.403Z,49.97
2022-12-25T07:18:40.114Z,43.70
2022-12-25T07:21:19.032Z,52.42
2022-12-25T07:23:47.763Z,49.95
2022-12-25T07:26:17.243Z,43.28
2022-12-25T07:28:44.751Z,34.30
2022-12-25T07:31:14.657Z,38.03
2022-12-25T07:33:41.924Z,37.00
2022-12-25T07:36:13.018Z,38.85
2022-12-25T07:38:43.160Z,36.30
2022-12-25T07:41:14.679Z,33.75
2022-12-25T07:43:42.258Z,39.00
2022-12-25T07:46:10.753Z,39.03
2022-12-25T07:48:39.067Z,41.05
2022-12-25T07:51:10.760Z,92.00
2022-12-25T07:53:38.507Z,55.88
2022-12-25T07:56:10.036Z,47.20
2022-12-25T07:58:37.283Z,43.80
2022-12-25T08:01:07.757Z,48.97
2022-12-25T08:03:35.677Z,49.67
2022-12-25T08:06:06.441Z,52.97
2022-12-25T08:08:33.780Z,64.72
2022-12-25T08:11:01.516Z,50.05
2022-12-25T08:13:32.342Z,80.93
2022-12-25T08:16:01.551Z,54.05
2022-12-25T08:18:30.587Z,40.95
2022-12-25T08:21:06.706Z,37.22
2022-12-25T08:23:35.936Z,31.92
2022-12-25T08:26:05.916Z,31.17
2022-12-25T08:28:33.917Z,31.45
2022-12-25T08:31:28.412Z,29.98
2022-12-25T08:33:58.534Z,29.50
2022-12-25T08:36:26.003Z,31.33
2022-12-25T08:38:55.657Z,30.55
2022-12-25T08:41:26.819Z,27.60
2022-12-25T08:43:54.645Z,30.17
2022-12-25T08:46:22.121Z,31.95
2022-12-25T08:48:49.834Z,33.33
2022-12-25T08:51:20.068Z,33.50
2022-12-25T08:56:16.089Z,31.77
2022-12-25T08:58:43.469Z,37.58
2022-12-25T09:01:12.179Z,37.15
2022-12-25T09:03:39.848Z,38.83
2022-12-25T09:06:16.629Z,42.03
2022-12-25T09:08:49.091Z,40.95
2022-12-25T09:11:19.541Z,42.17
2022-12-25T09:13:47.837Z,42.08
2022-12-25T09:16:19.286Z,40.38
2022-12-25T09:18:46.696Z,41.33
2022-12-25T09:21:16.321Z,46.00
2022-12-25T09:23:43.644Z,42.78
2022-12-25T09:26:14.536Z,38.00
2022-12-25T09:28:50.153Z,38.67
2022-12-25T09:31:19.041Z,39.55
2022-12-25T09:33:46.190Z,42.55
2022-12-25T09:36:13.579Z,40.05
2022-12-25T09:38:40.715Z,39.78
2022-12-25T09:41:16.965Z,42.35
2022-12-25T09:43:51.836Z,45.00
2022-12-25T09:46:25.195Z,44.92
2022-12-25T09:49:15.255Z,43.83
2022-12-25T09:51:45.837Z,41.20
2022-12-25T09:54:22.785Z,39.72
2022-12-25T09:56:50.335Z,41.50
2022-12-25T09:59:26.311Z,44.10
2022-12-25T10:02:22.348Z,42.53
2022-12-25T10:04:58.549Z,46.58
2022-12-25T10:07:32.186Z,43.78
2022-12-25T10:10:02.391Z,45.45
2022-12-25T10:12:30.254Z,48.83
2022-12-25T10:15:25.216Z,45.67
2022-12-25T10:18:14.379Z,60.15
2022-12-25T10:20:52.305Z,57.03
2022-12-25T10:23:26.251Z,60.90
2022-12-25T10:25:54.109Z,61.53
2022-12-25T10:28:35.062Z,67.22
2022-12-25T10:31:17.619Z,59.28
2022-12-25T10:33:45.646Z,57.72
2022-12-25T10:36:14.130Z,53.60
2022-12-25T10:38:41.620Z,53.75
2022-12-25T10:41:26.591Z,51.33
2022-12-25T10:43:56.959Z,53.10
2022-12-25T10:46:27.605Z,51.58
2022-12-25T10:49:03.273Z,55.03
2022-12-25T10:51:32.132Z,52.20
2022-12-25T10:54:01.591Z,53.90
2022-12-25T10:56:28.899Z,53.60
2022-12-25T10:59:11.476Z,51.80
2022-12-25T11:01:38.768Z,53.13
2022-12-25T11:04:06.456Z,51.85
2022-12-25T11:06:34.602Z,48.50
2022-12-25T11:09:03.198Z,48.58
2022-12-25T11:11:31.221Z,46.78
2022-12-25T11:14:02.464Z,44.95
2022-12-25T11:16:38.133Z,47.33
2022-12-25T11:19:28.341Z,44.42
2022-12-25T11:24:32.961Z,45.42
2022-12-25T11:27:06.630Z,42.47
2022-12-25T11:29:46.945Z,45.25
2022-12-25T11:32:22.837Z,46.28
2022-12-25T11:34:52.394Z,44.42
2022-12-25T11:37:50.451Z,43.15
2022-12-25T11:40:23.458Z,45.58
2022-12-25T11:43:04.081Z,47.05
2022-12-25T11:45:41.571Z,47.00
2022-12-25T11:48:19.835Z,49.20
2022-12-25T11:50:58.251Z,51.03
2022-12-25T11:53:34.943Z,46.38
2022-12-25T11:56:11.860Z,39.78
2022-12-25T11:58:44.012Z,39.10
2022-12-25T12:01:36.132Z,42.08
2022-12-25T12:04:13.824Z,42.75
2022-12-25T12:06:50.164Z,40.95
2022-12-25T12:09:40.757Z,42.53
2022-12-25T12:12:33.746Z,41.47
2022-12-25T12:15:42.610Z,42.30
2022-12-25T12:18:21.658Z,43.15
2022-12-25T12:20:59.380Z,40.10
2022-12-25T12:23:28.867Z,40.63
2022-12-25T12:25:56.839Z,39.67
2022-12-25T12:28:31.873Z,39.28
2022-12-25T12:31:10.451Z,40.78
2022-12-25T12:33:53.911Z,43.10
2022-12-25T12:36:36.220Z,39.47
2022-12-25T12:39:06.732Z,41.75
2022-12-25T12:41:49.242Z,42.30
2022-12-25T12:44:23.470Z,41.65
2022-12-25T12:46:56.329Z,46.03
2022-12-25T12:49:29.139Z,42.95
2022-12-25T12:52:25.489Z,39.45
2022-12-25T12:54:59.987Z,42.67
2022-12-25T12:57:39.584Z,40.33
2022-12-25T13:00:20.960Z,44.10
2022-12-25T13:03:12.865Z,41.63
2022-12-25T13:05:43.500Z,41.55
2022-12-25T13:08:28.421Z,40.90
2022-12-25T13:11:19.406Z,44.67
2022-12-25T13:13:49.940Z,63.75
2022-12-25T13:16:32.069Z,41.10
2022-12-25T13:19:04.508Z,38.92
2022-12-25T13:21:33.445Z,42.78
2022-12-25T13:24:10.602Z,40.85
2022-12-25T13:26:39.603Z,43.10
2022-12-25T13:29:11.445Z,41.38
2022-12-25T13:31:41.090Z,44.25
2022-12-25T13:34:40.625Z,40.93
2022-12-25T13:39:46.502Z,41.17
2022-12-25T13:42:17.764Z,41.28
2022-12-25T13:44:49.902Z,44.10
2022-12-25T13:47:43.243Z,45.30
2022-12-25T13:50:36.571Z,43.25
2022-12-25T13:53:16.125Z,45.78
2022-12-25T13:55:47.663Z,43.30
2022-12-25T13:58:25.244Z,41.88
2022-12-25T14:00:55.087Z,41.72
2022-12-25T14:03:30.654Z,45.60
2022-12-25T14:06:00.201Z,46.15
2022-12-25T14:10:58.373Z,47.47
2022-12-25T14:13:28.796Z,44.92
2022-12-25T14:15:57.919Z,47.00
2022-12-25T14:18:25.890Z,54.47
2022-12-25T14:20:59.197Z,48.72
2022-12-25T14:23:28.532Z,54.28
2022-12-25T14:25:55.930Z,67.95
2022-12-25T14:28:32.948Z,53.40
2022-12-25T14:31:02.493Z,56.42
2022-12-25T14:36:02.769Z,54.83
2022-12-25T14:38:34.941Z,52.55
2022-12-25T14:41:37.002Z,61.83
2022-12-25T14:44:26.132Z,60.65
2022-12-25T14:47:13.954Z,53.45
2022-12-25T14:49:42.355Z,65.88
2022-12-25T14:52:21.378Z,85.60
2022-12-25T14:54:56.623Z,61.63
2022-12-25T14:57:30.063Z,55.25
2022-12-25T15:00:00.556Z,58.05
2022-12-25T15:02:37.478Z,57.65
2022-12-25T15:05:05.721Z,59.95
2022-12-25T15:07:33.216Z,53.15
2022-12-25T15:10:36.591Z,60.20
2022-12-25T15:12:48.288Z,50.38
2022-12-25T15:15:16.115Z,56.10
2022-12-25T15:17:43.665Z,51.50
2022-12-25T15:20:14.726Z,53.45
2022-12-25T15:23:10.000Z,50.00
2022-12-25T15:25:30.812Z,54.22
2022-12-25T15:27:59.217Z,53.53
2022-12-25T15:30:26.837Z,51.67
2022-12-25T15:32:54.853Z,54.65
2022-12-25T15:35:22.697Z,61.33
2022-12-25T15:37:50.127Z,50.60
2022-12-25T15:40:19.675Z,49.25
2022-12-25T15:42:50.147Z,66.63
2022-12-25T15:45:22.599Z,62.53
2022-12-25T15:47:50.144Z,67.05
2022-12-25T15:50:19.083Z,54.20
2022-12-25T15:52:47.596Z,52.65
2022-12-25T15:55:15.651Z,58.75
2022-12-25T15:57:44.901Z,70.93
2022-12-25T16:00:18.013Z,66.18
2022-12-25T16:02:46.058Z,75.32
2022-12-25T16:05:14.310Z,70.15
2022-12-25T16:07:41.634Z,64.03
2022-12-25T16:10:15.844Z,74.32
2022-12-25T16:12:43.964Z,65.07
2022-12-25T16:15:13.498Z,66.50
2022-12-25T16:17:41.321Z,53.58
2022-12-25T16:20:09.879Z,59.55
2022-12-25T16:22:40.156Z,58.67
2022-12-25T16:25:14.052Z,65.40
2022-12-25T16:27:41.482Z,60.03
2022-12-25T16:30:11.138Z,60.45
2022-12-25T16:32:38.464Z,51.42
2022-12-25T16:35:06.303Z,48.20
2022-12-25T16:37:33.988Z,61.90
2022-12-25T16:40:02.184Z,53.50
2022-12-25T16:42:29.942Z,59.88
2022-12-25T16:44:57.757Z,58.90
2022-12-25T16:47:25.009Z,54.10
2022-12-25T16:49:52.740Z,75.28
2022-12-25T16:52:20.528Z,89.68
2022-12-25T16:54:49.004Z,83.93
2022-12-25T16:57:16.575Z,87.53
2022-12-25T16:59:44.537Z,78.80
2022-12-25T17:02:18.426Z,73.80
2022-12-25T17:04:47.816Z,64.68
2022-12-25T17:07:17.511Z,68.55
2022-12-25T17:09:49.761Z,69.45
2022-12-25T17:12:17.727Z,80.80
2022-12-25T17:14:45.646Z,68.30
2022-12-25T17:17:13.121Z,66.05
2022-12-25T17:19:41.743Z,65.70
2022-12-25T17:22:09.191Z,66.43
2022-12-25T17:24:37.752Z,67.03
2022-12-25T17:27:08.703Z,68.28
2022-12-25T17:29:39.875Z,72.63
2022-12-25T17:32:08.632Z,72.43
2022-12-25T17:34:37.611Z,65.18
2022-12-25T17:37:05.900Z,66.85
2022-12-25T17:39:33.777Z,67.22
2022-12-25T17:42:01.640Z,61.72
2022-12-25T17:44:29.997Z,64.32
2022-12-25T17:46:58.124Z,65.32
2022-12-25T17:49:26.626Z,67.57
2022-12-25T17:51:54.877Z,64.15
2022-12-25T17:54:23.285Z,57.03
2022-12-25T17:56:51.108Z,59.35
2022-12-25T17:59:20.559Z,68.47
2022-12-25T18:01:49.390Z,63.08
2022-12-25T18:04:18.567Z,60.95
2022-12-25T18:06:47.294Z,62.13
2022-12-25T18:09:16.274Z,63.47
2022-12-25T18:11:44.419Z,62.50
2022-12-25T18:14:15.402Z,59.70
2022-12-25T18:16:45.124Z,53.80
2022-12-25T18:19:14.570Z,51.10
2022-12-25T18:21:41.881Z,53.85
2022-12-25T18:24:10.144Z,50.65
2022-12-25T18:26:37.879Z,50.03
2022-12-25T18:29:07.057Z,54.42
2022-12-25T18:31:34.460Z,48.47
2022-12-25T18:34:02.318Z,54.13
2022-12-25T18:36:30.869Z,52.17
2022-12-25T18:38:58.792Z,55.13
2022-12-25T18:41:28.483Z,54.55
2022-12-25T18:43:57.298Z,57.17
2022-12-25T18:46:26.606Z,77.93
2022-12-25T18:48:57.814Z,58.17
2022-12-25T18:51:31.288Z,55.65
2022-12-25T18:54:04.775Z,57.80
2022-12-25T18:56:32.961Z,51.40
2022-12-25T18:59:01.412Z,47.90
2022-12-25T19:01:29.529Z,65.18
2022-12-25T19:04:04.505Z,72.10
2022-12-25T19:06:33.718Z,84.72
2022-12-25T19:09:09.241Z,56.58
2022-12-25T19:11:46.555Z,49.75
2022-12-25T19:14:15.451Z,50.38
2022-12-25T19:16:43.113Z,57.25
2022-12-25T19:19:13.038Z,97.88
2022-12-25T19:21:43.652Z,52.50
2022-12-25T19:24:12.527Z,42.90
2022-12-25T19:26:40.631Z,44.30
2022-12-25T19:29:08.770Z,46.60
2022-12-25T19:31:38.317Z,43.60
2022-12-25T19:34:06.864Z,41.58
2022-12-25T19:36:34.314Z,42.85
2022-12-25T19:39:02.282Z,42.15
2022-12-25T19:41:30.072Z,45.25
2022-12-25T19:43:58.828Z,46.53
2022-12-25T19:46:28.912Z,42.95
2022-12-25T19:48:59.310Z,44.38
2022-12-25T19:51:29.293Z,47.20
2022-12-25T19:53:58.373Z,47.00
2022-12-25T19:56:28.033Z,40.25
2022-12-25T19:58:57.520Z,45.30
2022-12-25T20:01:28.100Z,50.42
2022-12-25T20:03:57.554Z,48.30
2022-12-25T20:06:29.030Z,51.00
2022-12-25T20:09:04.765Z,50.78
2022-12-25T20:11:34.324Z,51.88
2022-12-25T20:16:30.038Z,51.65
2022-12-25T20:18:58.948Z,56.45
2022-12-25T20:21:27.671Z,55.08
2022-12-25T20:23:56.256Z,61.40
2022-12-25T20:26:30.261Z,61.57
2022-12-25T20:29:00.489Z,58.25
2022-12-25T20:31:31.277Z,57.38
2022-12-25T20:34:05.645Z,66.28
2022-12-25T20:36:37.163Z,63.83
2022-12-25T20:39:10.389Z,62.67
2022-12-25T20:41:39.077Z,58.40
2022-12-25T20:44:10.440Z,53.17
2022-12-25T20:46:38.625Z,54.50
2022-12-25T20:49:07.293Z,54.97
2022-12-25T20:51:35.256Z,58.97
2022-12-25T20:54:08.349Z,57.70
2022-12-25T20:56:38.015Z,54.70
2022-12-25T20:59:06.158Z,62.83
2022-12-25T21:01:34.029Z,51.97
2022-12-25T21:04:02.417Z,53.42
2022-12-25T21:06:30.149Z,53.47
2022-12-25T21:08:58.925Z,59.72
2022-12-25T21:11:27.477Z,57.90
2022-12-25T21:13:55.605Z,56.25
2022-12-25T21:16:23.817Z,55.72
2022-12-25T21:18:53.759Z,54.42
2022-12-25T21:21:22.627Z,56.80
2022-12-25T21:23:51.405Z,50.17
2022-12-25T21:26:22.315Z,56.28
2022-12-25T21:28:53.741Z,54.72
2022-12-25T21:31:21.528Z,53.97
2022-12-25T21:33:54.304Z,52.80
2022-12-25T21:36:27.521Z,53.03
2022-12-25T21:39:02.580Z,53.80
2022-12-25T21:41:32.001Z,53.75
2022-12-25T21:46:28.712Z,53.90
2022-12-25T21:48:58.251Z,55.95
2022-12-25T21:51:52.521Z,48.45
2022-12-25T21:54:22.716Z,54.30
2022-12-25T21:56:51.151Z,55.65
2022-12-25T21:59:21.419Z,57.10
2022-12-25T22:04:22.042Z,51.33
2022-12-25T22:07:09.182Z,48.83
2022-12-25T22:09:37.871Z,52.47
2022-12-25T22:12:30.158Z,52.75
2022-12-25T22:15:06.822Z,43.95
2022-12-25T22:17:58.852Z,44.65
2022-12-25T22:20:38.432Z,44.28
2022-12-25T22:23:05.963Z,45.87
2022-12-25T22:25:34.147Z,44.88
2022-12-25T22:28:01.855Z,46.55
2022-12-25T22:30:29.989Z,44.88
2022-12-25T22:32:57.777Z,43.28
2022-12-25T22:35:25.590Z,40.75
2022-12-25T22:37:54.192Z,41.28
2022-12-25T22:40:22.252Z,45.58
2022-12-25T22:42:49.771Z,43.40
2022-12-25T22:45:17.794Z,43.75
2022-12-25T22:47:45.664Z,40.75
2022-12-25T22:50:17.483Z,41.60
2022-12-25T22:52:45.835Z,41.17
2022-12-25T22:55:18.195Z,39.63
2022-12-25T22:57:45.431Z,38.67
2022-12-25T23:00:14.771Z,38.35
2022-12-25T23:02:42.234Z,40.40
2022-12-25T23:05:10.050Z,39.90
2022-12-25T23:07:37.560Z,37.97
2022-12-25T23:10:06.735Z,40.13
2022-12-25T23:12:52.551Z,39.13
2022-12-25T23:15:20.180Z,37.20
2022-12-25T23:18:06.531Z,38.72
2022-12-25T23:20:54.536Z,39.92
2022-12-25T23:23:40.619Z,40.35
2022-12-25T23:26:08.603Z,37.90
2022-12-25T23:28:59.457Z,40.22
2022-12-25T23:31:36.688Z,40.42
2022-12-25T23:34:06.122Z,39.75
2022-12-25T23:39:08.943Z,35.92
2022-12-25T23:41:42.016Z,39.88
2022-12-25T23:44:11.158Z,40.42
2022-12-25T23:46:39.881Z,41.15
2022-12-25T23:49:08.658Z,38.90
2022-12-25T23:51:37.831Z,39.97
2022-12-25T23:54:06.891Z,39.08
2022-12-25T23:56:35.196Z,40.20
2022-12-25T23:59:04.144Z,39.80
